createdAt,value
2017-10-17T00:02:52.982Z,15.90
2017-10-17T00:05:54.941Z,15.90
2017-10-17T00:08:57.298Z,16.00
2017-10-17T00:11:59.238Z,16.00
2017-10-17T00:15:01.240Z,15.90
2017-10-17T00:18:03.198Z,15.90
2017-10-17T00:21:05.165Z,15.90
2017-10-17T00:24:07.089Z,15.90
2017-10-17T00:27:10.967Z,15.80
2017-10-17T00:30:12.948Z,15.80
2017-10-17T00:33:14.925Z,15.80
2017-10-17T00:36:17.764Z,15.80
2017-10-17T00:39:20.179Z,15.80
2017-10-17T00:42:22.107Z,15.80
2017-10-17T00:45:24.117Z,15.70
2017-10-17T00:48:26.058Z,15.70
2017-10-17T00:51:28.779Z,15.60
2017-10-17T00:54:30.707Z,15.60
2017-10-17T00:57:32.678Z,15.50
2017-10-17T01:00:34.615Z,15.50
2017-10-17T01:03:37.357Z,15.50
2017-10-17T01:06:39.286Z,15.40
2017-10-17T01:09:42.013Z,15.50
2017-10-17T01:12:44.171Z,15.50
2017-10-17T01:15:46.884Z,15.50
2017-10-17T01:18:49.593Z,15.50
2017-10-17T01:21:51.545Z,15.50
2017-10-17T01:24:54.265Z,15.40
2017-10-17T01:28:08.693Z,15.30
2017-10-17T01:31:10.647Z,15.30
2017-10-17T01:34:12.617Z,15.30
2017-10-17T01:37:14.569Z,15.30
2017-10-17T01:40:23.389Z,15.30
2017-10-17T01:43:28.233Z,15.20
2017-10-17T01:46:30.579Z,15.20
2017-10-17T01:49:42.451Z,15.20
2017-10-17T01:52:45.204Z,15.20
2017-10-17T01:55:47.630Z,15.10
2017-10-17T01:58:50.451Z,15.10
2017-10-17T02:01:52.393Z,15.00
2017-10-17T02:04:54.370Z,15.00
2017-10-17T02:07:56.294Z,15.00
2017-10-17T02:11:00.089Z,15.00
2017-10-17T02:14:02.053Z,14.90
2017-10-17T02:17:04.030Z,14.90
2017-10-17T02:20:06.207Z,14.90
2017-10-17T02:23:09.046Z,14.90
2017-10-17T02:26:16.519Z,14.80
2017-10-17T02:29:21.979Z,14.80
2017-10-17T02:32:23.929Z,14.80
2017-10-17T02:35:30.984Z,14.80
2017-10-17T02:38:32.927Z,14.80
2017-10-17T02:41:35.970Z,14.80
2017-10-17T02:44:39.062Z,14.70
2017-10-17T02:47:41.812Z,14.70
2017-10-17T02:50:43.751Z,14.70
2017-10-17T02:53:46.490Z,14.60
2017-10-17T02:56:48.438Z,14.60
2017-10-17T02:59:58.587Z,14.50
2017-10-17T03:03:02.186Z,14.50
2017-10-17T03:06:04.190Z,14.50
2017-10-17T03:09:06.143Z,14.50
2017-10-17T03:12:08.122Z,14.40
2017-10-17T03:15:12.174Z,14.40
2017-10-17T03:18:14.150Z,14.30
2017-10-17T03:24:54.957Z,14.20
2017-10-17T03:28:04.487Z,14.10
2017-10-17T03:31:07.803Z,14.10
2017-10-17T03:34:14.213Z,14.10
2017-10-17T03:37:47.670Z,14.00
2017-10-17T03:40:51.390Z,14.00
2017-10-17T03:43:53.489Z,14.00
2017-10-17T03:46:55.421Z,14.00
2017-10-17T03:50:08.491Z,13.90
2017-10-17T03:53:31.294Z,13.90
2017-10-17T03:56:33.445Z,13.90
2017-10-17T03:59:35.407Z,13.90
2017-10-17T04:02:37.812Z,14.00
2017-10-17T04:05:41.530Z,14.00
2017-10-17T04:08:44.906Z,14.00
2017-10-17T04:11:46.838Z,14.00
2017-10-17T04:14:52.622Z,14.00
2017-10-17T04:18:04.305Z,13.90
2017-10-17T04:21:07.765Z,13.90
2017-10-17T04:24:21.390Z,13.90
2017-10-17T04:27:25.107Z,13.90
2017-10-17T04:30:38.668Z,13.90
2017-10-17T04:33:46.401Z,14.00
2017-10-17T04:36:59.637Z,14.00
2017-10-17T04:40:01.938Z,14.00
2017-10-17T04:43:15.899Z,13.90
2017-10-17T04:46:23.484Z,14.00
2017-10-17T04:49:47.902Z,14.00
2017-10-17T04:56:24.282Z,14.00
2017-10-17T04:59:34.989Z,14.00
2017-10-17T05:02:38.525Z,13.90
2017-10-17T05:05:43.896Z,13.90
2017-10-17T05:08:50.095Z,13.90
2017-10-17T05:11:52.043Z,13.90
2017-10-17T05:14:54.148Z,14.00
2017-10-17T05:18:01.406Z,13.90
2017-10-17T05:21:03.345Z,13.90
2017-10-17T05:24:28.686Z,14.00
2017-10-17T05:31:20.443Z,13.90
2017-10-17T05:34:26.785Z,13.90
2017-10-17T05:37:28.761Z,14.00
2017-10-17T05:40:30.813Z,14.00
2017-10-17T05:43:55.319Z,14.00
2017-10-17T05:46:59.894Z,14.00
2017-10-17T05:50:15.162Z,14.00
2017-10-17T05:53:17.867Z,14.00
2017-10-17T05:56:20.589Z,14.10
2017-10-17T05:59:22.547Z,14.10
2017-10-17T06:02:25.290Z,14.20
2017-10-17T06:05:27.259Z,14.10
2017-10-17T06:08:29.848Z,14.20
2017-10-17T06:11:31.773Z,14.20
2017-10-17T06:14:34.112Z,14.20
2017-10-17T06:17:36.926Z,14.20
2017-10-17T06:20:38.998Z,14.20
2017-10-17T06:23:41.707Z,14.20
2017-10-17T06:26:43.761Z,14.20
2017-10-17T06:29:45.753Z,14.20
2017-10-17T06:32:48.488Z,14.30
2017-10-17T06:35:50.420Z,14.20
2017-10-17T06:38:52.477Z,14.30
2017-10-17T06:41:54.410Z,14.30
2017-10-17T06:44:57.509Z,14.30
2017-10-17T06:47:59.467Z,14.30
2017-10-17T06:51:01.851Z,14.40
2017-10-17T06:54:03.781Z,14.40
2017-10-17T06:57:06.495Z,14.40
2017-10-17T07:00:09.210Z,14.40
2017-10-17T07:03:11.267Z,14.40
2017-10-17T07:06:13.265Z,14.50
2017-10-17T07:09:16.035Z,14.50
2017-10-17T07:12:18.034Z,14.50
2017-10-17T07:15:20.613Z,14.50
2017-10-17T07:18:22.611Z,14.60
2017-10-17T07:21:24.605Z,14.60
2017-10-17T07:24:27.306Z,14.70
2017-10-17T07:27:30.327Z,14.70
2017-10-17T07:30:33.114Z,14.70
2017-10-17T07:33:35.895Z,14.80
2017-10-17T07:36:38.593Z,14.90
2017-10-17T07:39:40.586Z,14.90
2017-10-17T07:42:44.119Z,15.10
2017-10-17T07:45:47.169Z,15.20
2017-10-17T07:48:49.098Z,15.20
2017-10-17T07:51:51.054Z,15.40
2017-10-17T07:54:52.981Z,15.60
2017-10-17T07:57:55.708Z,15.90
2017-10-17T08:00:57.658Z,15.80
2017-10-17T08:04:00.482Z,16.10
2017-10-17T08:07:02.434Z,16.10
2017-10-17T08:10:04.542Z,16.30
2017-10-17T08:13:06.574Z,16.50
2017-10-17T08:16:08.585Z,16.70
2017-10-17T08:19:11.273Z,16.90
2017-10-17T08:22:13.246Z,16.90
2017-10-17T08:25:15.200Z,17.10
2017-10-17T08:28:17.578Z,17.20
2017-10-17T08:31:19.553Z,17.40
2017-10-17T08:34:21.800Z,17.70
2017-10-17T08:37:23.806Z,17.90
2017-10-17T08:40:26.633Z,18.60
2017-10-17T08:43:28.597Z,18.60
2017-10-17T08:46:31.421Z,19.20
2017-10-17T08:49:33.345Z,19.10
2017-10-17T08:52:35.665Z,19.60
2017-10-17T08:55:37.591Z,19.90
2017-10-17T08:58:39.640Z,20.10
2017-10-17T09:01:42.361Z,20.60
2017-10-17T09:04:44.504Z,20.50
2017-10-17T09:07:46.521Z,20.70
2017-10-17T09:10:49.643Z,21.20
2017-10-17T09:13:51.594Z,21.10
2017-10-17T09:16:53.917Z,21.40
2017-10-17T09:19:56.618Z,22.30
2017-10-17T09:22:59.407Z,22.70
2017-10-17T09:26:01.379Z,22.70
2017-10-17T09:29:03.385Z,23.10
2017-10-17T09:32:06.177Z,23.30
2017-10-17T09:35:08.979Z,23.50
2017-10-17T09:38:10.918Z,23.40
2017-10-17T09:41:12.975Z,23.80
2017-10-17T09:44:14.930Z,24.00
2017-10-17T09:47:16.878Z,23.90
2017-10-17T09:50:18.908Z,23.80
2017-10-17T09:53:22.032Z,24.00
2017-10-17T09:56:24.842Z,23.90
2017-10-17T09:59:26.898Z,23.90
2017-10-17T10:02:28.901Z,23.90
2017-10-17T10:05:31.298Z,24.00
2017-10-17T10:08:33.254Z,24.00
2017-10-17T10:11:35.246Z,24.00
2017-10-17T10:14:37.277Z,23.90
2017-10-17T10:17:39.474Z,24.00
2017-10-17T10:20:41.410Z,24.00
2017-10-17T10:23:44.513Z,24.10
2017-10-17T10:26:46.524Z,24.10
2017-10-17T10:29:49.614Z,24.00
2017-10-17T10:32:51.541Z,24.00
2017-10-17T10:35:53.576Z,24.00
2017-10-17T10:38:56.458Z,23.90
2017-10-17T10:41:58.584Z,23.80
2017-10-17T10:45:01.379Z,24.00
2017-10-17T10:48:03.665Z,24.00
2017-10-17T10:51:05.596Z,24.10
2017-10-17T10:54:07.952Z,24.00
2017-10-17T10:57:11.102Z,24.30
2017-10-17T11:00:13.051Z,24.30
2017-10-17T11:03:15.858Z,24.10
2017-10-17T11:06:18.233Z,24.10
2017-10-17T11:09:20.588Z,24.10
2017-10-17T11:12:23.067Z,24.00
2017-10-17T11:15:25.012Z,24.00
2017-10-17T11:18:28.124Z,23.90
2017-10-17T11:21:30.807Z,23.90
2017-10-17T11:24:32.762Z,23.90
2017-10-17T11:27:34.690Z,24.00
2017-10-17T11:30:37.822Z,24.30
2017-10-17T11:33:39.907Z,24.30
2017-10-17T11:36:42.000Z,24.40
2017-10-17T11:39:43.931Z,24.70
2017-10-17T11:42:57.952Z,24.70
2017-10-17T11:45:59.910Z,24.90
2017-10-17T11:49:02.699Z,24.90
2017-10-17T11:52:04.657Z,24.90
2017-10-17T11:55:06.719Z,24.70
2017-10-17T11:58:08.672Z,24.40
2017-10-17T12:01:10.726Z,24.50
2017-10-17T12:04:13.433Z,24.20
2017-10-17T12:07:16.404Z,24.30
2017-10-17T12:10:18.349Z,24.30
2017-10-17T12:13:20.842Z,24.40
2017-10-17T12:16:22.769Z,24.30
2017-10-17T12:19:24.737Z,24.40
2017-10-17T12:22:26.783Z,24.20
2017-10-17T12:25:29.185Z,24.30
2017-10-17T12:28:31.267Z,24.30
2017-10-17T12:31:33.237Z,24.00
2017-10-17T12:34:36.137Z,23.60
2017-10-17T12:37:39.347Z,23.50
2017-10-17T12:40:42.172Z,23.40
2017-10-17T12:43:44.544Z,23.30
2017-10-17T12:46:47.461Z,23.10
2017-10-17T12:49:49.830Z,23.10
2017-10-17T12:52:51.846Z,23.10
2017-10-17T12:55:54.202Z,22.80
2017-10-17T12:58:56.193Z,22.70
2017-10-17T13:01:58.935Z,22.30
2017-10-17T13:05:00.899Z,22.20
2017-10-17T13:08:03.255Z,22.10
2017-10-17T13:11:05.185Z,22.00
2017-10-17T13:14:07.255Z,22.00
2017-10-17T13:17:09.239Z,21.80
2017-10-17T13:20:11.213Z,21.50
2017-10-17T13:23:13.997Z,21.30
2017-10-17T13:26:16.748Z,21.10
2017-10-17T13:29:18.908Z,21.10
2017-10-17T13:32:21.716Z,21.00
2017-10-17T13:35:24.912Z,21.00
2017-10-17T13:38:28.358Z,21.00
2017-10-17T13:41:30.313Z,21.00
2017-10-17T13:44:33.101Z,20.90
2017-10-17T13:47:35.826Z,20.70
2017-10-17T13:50:38.227Z,20.70
2017-10-17T13:53:40.294Z,20.70
2017-10-17T13:56:43.091Z,20.50
2017-10-17T13:59:45.881Z,20.30
2017-10-17T14:02:47.902Z,20.30
2017-10-17T14:05:49.865Z,20.00
2017-10-17T14:08:52.978Z,19.10
2017-10-17T14:11:55.793Z,18.80
2017-10-17T14:14:58.186Z,18.80
2017-10-17T14:18:01.188Z,18.60
2017-10-17T14:21:04.285Z,18.20
2017-10-17T14:24:07.089Z,18.10
2017-10-17T14:27:09.813Z,18.00
2017-10-17T14:30:11.778Z,17.90
2017-10-17T14:33:14.613Z,17.70
2017-10-17T14:36:16.534Z,17.70
2017-10-17T14:39:18.505Z,17.50
2017-10-17T14:42:20.506Z,17.40
2017-10-17T14:45:22.795Z,17.30
2017-10-17T14:48:24.737Z,17.20
2017-10-17T14:51:26.873Z,17.10
2017-10-17T14:54:29.565Z,16.90
2017-10-17T14:57:31.573Z,16.90
2017-10-17T15:00:34.385Z,16.60
2017-10-17T15:03:36.450Z,16.60
2017-10-17T15:06:39.170Z,16.40
2017-10-17T15:09:41.243Z,16.40
2017-10-17T15:12:44.047Z,16.20
2017-10-17T15:15:46.786Z,16.10
2017-10-17T15:18:48.770Z,16.10
2017-10-17T15:21:50.846Z,16.00
2017-10-17T15:24:53.622Z,15.90
2017-10-17T15:27:55.769Z,15.80
2017-10-17T15:30:57.799Z,15.70
2017-10-17T15:34:00.099Z,15.60
2017-10-17T15:37:02.061Z,15.50
2017-10-17T15:40:04.890Z,15.30
2017-10-17T15:43:06.958Z,15.30
2017-10-17T15:46:09.048Z,15.20
2017-10-17T15:49:11.015Z,15.10
2017-10-17T15:52:13.851Z,15.00
2017-10-17T15:55:15.829Z,15.00
2017-10-17T15:58:17.898Z,14.90
2017-10-17T16:01:20.719Z,14.70
2017-10-17T16:04:22.806Z,14.70
2017-10-17T16:07:24.962Z,14.70
2017-10-17T16:10:27.797Z,14.50
2017-10-17T16:13:29.729Z,14.50
2017-10-17T16:16:31.760Z,14.50
2017-10-17T16:19:33.706Z,14.40
2017-10-17T16:22:35.835Z,14.30
2017-10-17T16:25:37.785Z,14.30
2017-10-17T16:28:40.931Z,14.10
2017-10-17T16:31:42.870Z,14.10
2017-10-17T16:34:45.689Z,14.00
2017-10-17T16:37:47.658Z,14.00
2017-10-17T16:40:50.403Z,13.90
2017-10-17T16:43:52.498Z,13.90
2017-10-17T16:46:54.566Z,13.90
2017-10-17T16:49:56.536Z,13.90
2017-10-17T16:52:58.621Z,13.90
2017-10-17T16:56:00.574Z,13.90
2017-10-17T16:59:03.290Z,13.70
2017-10-17T17:02:06.103Z,13.70
2017-10-17T17:05:08.091Z,13.60
2017-10-17T17:08:10.164Z,13.60
2017-10-17T17:11:13.229Z,13.50
2017-10-17T17:14:15.239Z,13.50
2017-10-17T17:17:18.047Z,13.40
2017-10-17T17:20:20.163Z,13.30
2017-10-17T17:23:22.153Z,13.30
2017-10-17T17:26:24.090Z,13.30
2017-10-17T17:29:26.094Z,13.20
2017-10-17T17:32:28.797Z,13.20
2017-10-17T17:35:31.922Z,13.20
2017-10-17T17:38:33.882Z,13.20
2017-10-17T17:41:37.023Z,13.20
2017-10-17T17:44:39.143Z,13.10
2017-10-17T17:47:41.465Z,13.10
2017-10-17T17:50:44.197Z,13.10
2017-10-17T17:53:46.466Z,13.10
2017-10-17T17:56:48.541Z,13.10
2017-10-17T17:59:51.701Z,13.10
2017-10-17T18:02:53.636Z,13.10
2017-10-17T18:05:56.582Z,13.10
2017-10-17T18:08:58.572Z,13.10
2017-10-17T18:12:00.589Z,13.10
2017-10-17T18:15:02.719Z,13.10
2017-10-17T18:18:04.700Z,13.10
2017-10-17T18:21:07.580Z,13.10
2017-10-17T18:24:10.337Z,13.10
2017-10-17T18:27:12.280Z,13.10
2017-10-17T18:30:14.930Z,13.10
2017-10-17T18:33:16.911Z,13.10
2017-10-17T18:36:19.349Z,13.10
2017-10-17T18:39:22.093Z,13.10
2017-10-17T18:42:25.283Z,13.10
2017-10-17T18:45:27.320Z,13.10
2017-10-17T18:48:29.363Z,13.10
2017-10-17T18:51:31.339Z,13.10
2017-10-17T18:54:33.415Z,13.10
2017-10-17T18:57:35.965Z,13.10
2017-10-17T19:00:37.967Z,13.10
2017-10-17T19:03:39.973Z,13.00
2017-10-17T19:06:42.061Z,13.10
2017-10-17T19:09:44.203Z,13.10
2017-10-17T19:12:46.211Z,13.10
2017-10-17T19:15:49.028Z,13.00
2017-10-17T19:18:52.161Z,13.00
2017-10-17T19:21:54.318Z,13.00
2017-10-17T19:24:57.090Z,13.00
2017-10-17T19:27:59.305Z,13.00
2017-10-17T19:31:02.046Z,12.90
2017-10-17T19:34:04.020Z,12.90
2017-10-17T19:37:06.097Z,12.90
2017-10-17T19:40:08.045Z,12.80
2017-10-17T19:43:10.447Z,12.80
2017-10-17T19:46:13.288Z,12.80
2017-10-17T19:49:15.290Z,12.70
2017-10-17T19:52:17.271Z,12.80
2017-10-17T19:55:19.416Z,12.80
2017-10-17T19:58:22.852Z,12.90
2017-10-17T20:01:25.237Z,12.80
2017-10-17T20:04:27.178Z,12.90
2017-10-17T20:07:29.169Z,12.90
2017-10-17T20:10:31.906Z,12.90
2017-10-17T20:13:34.176Z,12.80
2017-10-17T20:16:36.975Z,12.90
2017-10-17T20:19:40.110Z,12.90
2017-10-17T20:22:42.082Z,12.80
2017-10-17T20:25:44.314Z,12.90
2017-10-17T20:28:46.349Z,12.80
2017-10-17T20:31:48.437Z,12.80
2017-10-17T20:34:50.383Z,12.70
2017-10-17T20:37:53.695Z,12.70
2017-10-17T20:40:55.667Z,12.70
2017-10-17T20:43:57.711Z,12.60
2017-10-17T20:47:00.437Z,12.50
2017-10-17T20:50:02.823Z,12.50
2017-10-17T20:53:04.790Z,12.50
2017-10-17T20:56:07.206Z,12.50
2017-10-17T20:59:09.195Z,12.40
2017-10-17T21:02:11.277Z,12.30
2017-10-17T21:05:13.942Z,12.20
2017-10-17T21:08:16.840Z,12.10
2017-10-17T21:11:19.573Z,12.00
2017-10-17T21:14:21.581Z,12.00
2017-10-17T21:17:24.382Z,11.90
2017-10-17T21:20:26.613Z,11.90
2017-10-17T21:23:29.553Z,11.80
2017-10-17T21:26:31.551Z,11.70
2017-10-17T21:29:33.489Z,11.70
2017-10-17T21:32:36.623Z,11.60
2017-10-17T21:35:38.782Z,11.60
2017-10-17T21:38:41.589Z,11.50
2017-10-17T21:41:44.420Z,11.40
2017-10-17T21:44:46.426Z,11.40
2017-10-17T21:47:48.513Z,11.40
2017-10-17T21:50:50.546Z,11.30
2017-10-17T21:53:53.358Z,11.10
2017-10-17T21:56:55.555Z,11.10
2017-10-17T21:59:57.513Z,11.10
2017-10-17T22:03:00.674Z,11.00
2017-10-17T22:06:02.640Z,10.90
2017-10-17T22:09:04.698Z,10.90
2017-10-17T22:12:07.440Z,10.80
2017-10-17T22:15:09.817Z,10.70
2017-10-17T22:18:11.794Z,10.70
2017-10-17T22:21:13.813Z,10.60
2017-10-17T22:24:15.757Z,10.60
2017-10-17T22:27:17.932Z,10.60
2017-10-17T22:30:20.651Z,10.50
2017-10-17T22:33:22.703Z,10.50
2017-10-17T22:36:24.674Z,10.50
2017-10-17T22:39:27.729Z,10.50
2017-10-17T22:42:29.684Z,10.40
2017-10-17T22:45:32.467Z,10.40
2017-10-17T22:48:34.501Z,10.40
2017-10-17T22:51:36.490Z,10.40
2017-10-17T22:54:38.410Z,10.30
2017-10-17T22:57:40.374Z,10.30
2017-10-17T23:00:42.330Z,10.30
2017-10-17T23:03:44.401Z,10.20
2017-10-17T23:06:46.379Z,10.20
2017-10-17T23:09:48.659Z,10.20
2017-10-17T23:12:51.472Z,10.10
2017-10-17T23:15:54.555Z,10.10
2017-10-17T23:19:08.637Z,10.10
2017-10-17T23:22:11.749Z,10.00
2017-10-17T23:25:15.357Z,10.00
2017-10-17T23:28:17.960Z,9.90
2017-10-17T23:31:19.954Z,9.90
2017-10-17T23:34:22.954Z,9.90
2017-10-17T23:37:26.234Z,9.90
2017-10-17T23:40:28.805Z,9.90
2017-10-17T23:43:30.735Z,9.90
2017-10-17T23:46:33.051Z,9.80
2017-10-17T23:49:35.009Z,9.80
2017-10-17T23:52:36.985Z,9.80
2017-10-17T23:55:38.930Z,9.80
2017-10-17T23:58:40.923Z,9.80
